NACIONALNO OTVORENO PRVENSTVO HRVATSKE U KARTINGU
3. NAGRADA VIROVITICE '10
Virovitica, 12.-13.06.2010.

KLASA 0
Poz. S.b. Vozač Klub Nac. Krug Vrijeme Zaostatak Bod.
1. 4 Dorian Vargović Cobra Virovitica HR 5 5:06,564 0:00,000 -
2. 7 Tin Vorkapić KK Koprivnica HR 5 5:09,116 0:02,552 -
3. 8 Filip Vuković Cobra Virovitica HR 5 5:19,067 0:12,503 -
4. 9 Jan Tisaj KK Koprivnica HR 5 5:29,665 0:23,101 -
5. 10 Luka Tomašić KK Koprivnica HR 5 5:36,068 0:29,504 -
6. 11 Erik Trstenjak AKK Podravina Koprivnica HR 5 5:40,018 0:33,454 -
 
KLASA I - 1. UTRKA
Poz. S.b. Vozač Klub Nac. Krug Vrijeme Zaostatak Bod.
1. 102 Muhammad Pličanić AK Info Kart HR 12 9:53,999 0:00,000 20
2. 111 Jan Pokos AK Speedy HR 12 10:05,530 0:11,531 15
3. 106 Mihael Meretaj Cobra Virovitica HR 12 10:20,191 0:26,192 12
4. 112 Matija Kovačić KK 1 Zagreb HR 11 10:18,166 1 krug 10
5. 113 Mark Lukač AK Info Kart HR 11 10:31,178 1 krug 8
 
KLASA I - 2. UTRKA
Poz. S.b. Vozač Klub Nac. Krug Vrijeme Zaostatak Bod.
1. 112 Matija Kovačić KK 1 Zagreb HR 12 9:58,410 0:00,000 20
2. 111 Jan Pokos AK Speedy HR 12 10:12,065 0:13,655 15
3. 106 Mihael Meretaj Cobra Virovitica HR 12 10:16,832 0:18,422 12
4. 113 Mark Lukač AK Info Kart HR 11 10:10,721 1 krug 10
- 102 Muhammad Pličanić AK Info Kart HR 0 nije startao -
 
KLASA II - 1. UTRKA
Poz. S.b. Vozač Klub Nac. Krug Vrijeme Zaostatak Bod.
1. 201 Juraj Kovačić KK 1 Zagreb HR 12 9:22,142 0:00,000 20
2. 206 Damian Sekulić Cobra Virovitica HR 12 9:28,424 0:06,282 15
3. 210 Luka Mavrin KK 1 Zagreb HR 12 9:44,307 0:22,165 12
4. 207 Fran Tisaj KK Koprivnica HR 12 9:44,625 0:22,483 10
5. 208 Corina Lukša Cobra Virovitica HR 12 9:45,148 0:23,006 8
6. 209 Željko Romić Cobra Virovitica HR 12 10:06,700 0:44,558 6
- 202 Vojislav Milošević KK Bečaj SRB 12 isključen -
 
KLASA II - 2. UTRKA
Poz. S.b. Vozač Klub Nac. Krug Vrijeme Zaostatak Bod.
1. 201 Juraj Kovačić KK 1 Zagreb HR 12 9:18,646 0:00,000 20
2. 206 Damian Sekulić Cobra Virovitica HR 12 9:26,375 0:07,729 15
3. 202 Vojislav Milošević KK Bečaj SRB 12 9:32,815 0:14,169 12
4. 207 Fran Tisaj KK Koprivnica HR 12 9:33,055 0:14,409 10
5. 210 Luka Mavrin KK 1 Zagreb HR 12 9:41,612 0:22,966 8
6. 208 Corina Lukša Cobra Virovitica HR 12 9:41,974 0:23,328 6
7. 209 Željko Romić Cobra Virovitica HR 12 9:58,433 0:39,787 4
 
KLASA V - 1. UTRKA
Poz. S.b. Vozač Klub Nac. Krug Vrijeme Zaostatak Bod.
1. 515 Nikola Belohradski AKK Zanatlija HR 15 10:25,511 0:00,000 20
2. 502 Sven Gorup AKK Zanatlija HR 15 10:29,837 0:04,326 15
3. 501 Karlo Golub KK 1 Zagreb HR 15 10:41,469 0:15,958 12
4. 510 Tomislav Pavlić KK 1 Zagreb HR 15 10:42,672 0:17,161 10
5. 516 Matija Zajec KK 1 Zagreb HR 15 10:58,120 0:32,609 8
 
KLASA V - 2. UTRKA
Poz. S.b. Vozač Klub Nac. Krug Vrijeme Zaostatak Bod.
1. 515 Nikola Belohradski AKK Zanatlija HR 15 10:22,849 0:00,000 20
2. 501 Karlo Golub KK 1 Zagreb HR 15 10:33,090 0:10,241 15
3. 510 Tomislav Pavlić KK 1 Zagreb HR 15 10:34,431 0:11,582 12
4. 502 Sven Gorup AKK Zanatlija HR 15 10:47,097 0:24,248 10
5. 516 Matija Zajec KK 1 Zagreb HR 14 10:47,486 1 krug 8
 
KLASA VII - 1. UTRKA
Poz. S.b. Vozač Klub Nac. Krug Vrijeme Zaostatak Bod.
1. 720 Nedjeljko Vucelić KK 1 Zagreb HR 19 12:54,650 0:00,000 20
2. 703 Žarko Martinjak KK Koprivnica HR 19 13:35,060 0:40,410 15
3. 708 Siniša Mišić Cobra Virovitica HR 18 13:08,341 1 krug 12
4. 709 Zlatko Kovačić KK Koprivnica HR 18 14:13,369 1 krug 10
5. 705 Zlatko Banić SAK Split HR 17 12:55,196 2 kruga 8
 
KLASA VII - 2. UTRKA
Poz. S.b. Vozač Klub Nac. Krug Vrijeme Zaostatak Bod.
1. 703 Žarko Martinjak KK Koprivnica HR 19 13:14,769 0:00,000 20
2. 720 Nedjeljko Vucelić KK 1 Zagreb HR 19 13:28,625 0:13,856 15
3. 708 Siniša Mišić Cobra Virovitica HR 18 13:29,487 1 krug 12
4. 705 Zlatko Banić SAK Split HR 17 14:08,010 2 kruga 10
- 709 Zlatko Kovačić KK Koprivnica HR 0 nije startao -
 
KLASA VIII - 1. UTRKA
Poz. S.b. Vozač Klub Nac. Krug Vrijeme Zaostatak Bod.
1. 801 Samir Smailagić AK Info Kart HR 16 12:07,902 0:00,000 20
2. 802 Ivijan Rajnović Cobra Virovitica HR 16 12:08,492 0:00,590 15
3. 804 Tomislav Lovrenc AKK Podravina Koprivnica HR 16 12:12,340 0:04,438 12
4. 809 Ivan Žovan KK 1 Zagreb HR 16 12:16,311 0:08,409 10
5. 808 Krunoslav Žovan KK 1 Zagreb HR 16 12:47,343 0:39,441 8
- 810 Nikola Carević KK 1 Zagreb HR 6 odustao -
 
KLASA VIII - 2. UTRKA
Poz. S.b. Vozač Klub Nac. Krug Vrijeme Zaostatak Bod.
1. 801 Samir Smailagić AK Info Kart HR 16 12:02,373 0:00,000 20
2. 802 Ivijan Rajnović Cobra Virovitica HR 16 12:04,464 0:02,091 15
3. 804 Tomislav Lovrenc AKK Podravina Koprivnica HR 16 12:09,618 0:07,245 12
4. 810 Nikola Carević KK 1 Zagreb HR 16 12:14,835 0:12,462 10
5. 809 Ivan Žovan KK 1 Zagreb HR 16 12:15,193 0:12,820 8
6. 808 Krunoslav Žovan KK 1 Zagreb HR 16 12:30,949 0:28,576 6
 
PRVENSTVO HRVATSKE